sensor_id;sensor_type;location;lat;lon;timestamp;P1;durP1;ratioP1;P2;durP2;ratioP2
8564;SDS011;4320;51.498;6.556;2022-08-01T00:00:30;15.35;;;10.85;;
8564;SDS011;4320;51.498;6.556;2022-08-01T00:02:56;14.70;;;11.32;;
8564;SDS011;4320;51.498;6.556;2022-08-01T00:05:22;14.82;;;10.88;;
8564;SDS011;4320;51.498;6.556;2022-08-01T00:07:48;14.30;;;10.60;;
8564;SDS011;4320;51.498;6.556;2022-08-01T00:10:15;13.77;;;10.30;;
8564;SDS011;4320;51.498;6.556;2022-08-01T00:12:42;11.43;;;10.20;;
8564;SDS011;4320;51.498;6.556;2022-08-01T00:15:09;14.52;;;10.43;;
8564;SDS011;4320;51.498;6.556;2022-08-01T00:17:35;16.42;;;10.45;;
8564;SDS011;4320;51.498;6.556;2022-08-01T00:20:02;15.07;;;10.85;;
8564;SDS011;4320;51.498;6.556;2022-08-01T00:22:30;14.02;;;10.07;;
8564;SDS011;4320;51.498;6.556;2022-08-01T00:24:56;11.65;;;9.88;;
8564;SDS011;4320;51.498;6.556;2022-08-01T00:27:22;12.18;;;9.23;;
8564;SDS011;4320;51.498;6.556;2022-08-01T00:29:48;11.98;;;9.90;;
8564;SDS011;4320;51.498;6.556;2022-08-01T00:32:14;11.38;;;9.45;;
8564;SDS011;4320;51.498;6.556;2022-08-01T00:34:39;12.57;;;9.98;;
8564;SDS011;4320;51.498;6.556;2022-08-01T00:37:05;10.90;;;9.02;;
8564;SDS011;4320;51.498;6.556;2022-08-01T00:39:33;13.13;;;9.73;;
8564;SDS011;4320;51.498;6.556;2022-08-01T00:42:00;11.32;;;9.35;;
8564;SDS011;4320;51.498;6.556;2022-08-01T00:44:31;11.68;;;9.35;;
8564;SDS011;4320;51.498;6.556;2022-08-01T00:46:56;13.00;;;9.85;;
8564;SDS011;4320;51.498;6.556;2022-08-01T00:49:22;11.70;;;9.40;;
8564;SDS011;4320;51.498;6.556;2022-08-01T00:51:47;14.95;;;9.52;;
8564;SDS011;4320;51.498;6.556;2022-08-01T00:54:14;11.50;;;10.30;;
8564;SDS011;4320;51.498;6.556;2022-08-01T00:56:40;14.55;;;9.80;;
8564;SDS011;4320;51.498;6.556;2022-08-01T00:59:06;14.70;;;10.65;;
8564;SDS011;4320;51.498;6.556;2022-08-01T01:01:33;14.10;;;9.90;;
8564;SDS011;4320;51.498;6.556;2022-08-01T01:04:00;15.60;;;10.52;;
8564;SDS011;4320;51.498;6.556;2022-08-01T01:17:37;12.00;;;9.68;;
8564;SDS011;4320;51.498;6.556;2022-08-01T01:20:06;16.77;;;9.68;;
8564;SDS011;4320;51.498;6.556;2022-08-01T01:22:57;13.80;;;10.07;;
8564;SDS011;4320;51.498;6.556;2022-08-01T01:30:53;14.30;;;10.25;;
8564;SDS011;4320;51.498;6.556;2022-08-01T01:33:21;14.00;;;11.00;;
8564;SDS011;4320;51.498;6.556;2022-08-01T01:35:51;16.17;;;10.80;;
8564;SDS011;4320;51.498;6.556;2022-08-01T01:38:21;16.45;;;10.68;;
8564;SDS011;4320;51.498;6.556;2022-08-01T01:40:50;16.10;;;11.15;;
8564;SDS011;4320;51.498;6.556;2022-08-01T01:43:17;13.13;;;10.50;;
8564;SDS011;4320;51.498;6.556;2022-08-01T01:45:45;13.15;;;10.35;;
8564;SDS011;4320;51.498;6.556;2022-08-01T01:48:13;15.25;;;10.38;;
8564;SDS011;4320;51.498;6.556;2022-08-01T01:50:45;14.35;;;10.68;;
8564;SDS011;4320;51.498;6.556;2022-08-01T01:53:13;16.73;;;11.18;;
8564;SDS011;4320;51.498;6.556;2022-08-01T01:55:41;20.20;;;11.85;;
8564;SDS011;4320;51.498;6.556;2022-08-01T01:58:12;12.25;;;10.93;;
8564;SDS011;4320;51.498;6.556;2022-08-01T02:00:38;17.58;;;11.68;;
8564;SDS011;4320;51.498;6.556;2022-08-01T02:03:07;19.75;;;12.07;;
8564;SDS011;4320;51.498;6.556;2022-08-01T02:05:37;14.77;;;11.70;;
8564;SDS011;4320;51.498;6.556;2022-08-01T02:08:04;18.58;;;11.77;;
8564;SDS011;4320;51.498;6.556;2022-08-01T02:10:32;17.85;;;13.05;;
8564;SDS011;4320;51.498;6.556;2022-08-01T02:12:59;24.63;;;12.57;;
8564;SDS011;4320;51.498;6.556;2022-08-01T02:15:28;21.63;;;13.35;;
8564;SDS011;4320;51.498;6.556;2022-08-01T02:17:55;16.55;;;11.75;;
8564;SDS011;4320;51.498;6.556;2022-08-01T02:20:21;22.40;;;14.27;;
8564;SDS011;4320;51.498;6.556;2022-08-01T02:23:01;23.95;;;13.55;;
8564;SDS011;4320;51.498;6.556;2022-08-01T02:25:39;19.45;;;12.98;;
8564;SDS011;4320;51.498;6.556;2022-08-01T02:28:10;19.70;;;12.73;;
8564;SDS011;4320;51.498;6.556;2022-08-01T02:30:42;17.90;;;13.18;;
8564;SDS011;4320;51.498;6.556;2022-08-01T02:33:14;21.27;;;12.90;;
8564;SDS011;4320;51.498;6.556;2022-08-01T02:35:42;19.30;;;13.57;;
8564;SDS011;4320;51.498;6.556;2022-08-01T02:38:11;19.30;;;13.57;;
8564;SDS011;4320;51.498;6.556;2022-08-01T02:40:40;23.67;;;15.80;;
8564;SDS011;4320;51.498;6.556;2022-08-01T02:43:09;23.20;;;15.38;;
8564;SDS011;4320;51.498;6.556;2022-08-01T02:45:37;21.45;;;14.73;;
8564;SDS011;4320;51.498;6.556;2022-08-01T02:48:11;21.10;;;13.85;;
8564;SDS011;4320;51.498;6.556;2022-08-01T02:50:39;21.02;;;14.38;;
8564;SDS011;4320;51.498;6.556;2022-08-01T02:53:08;20.95;;;14.13;;
8564;SDS011;4320;51.498;6.556;2022-08-01T02:55:36;21.83;;;13.82;;
8564;SDS011;4320;51.498;6.556;2022-08-01T02:58:04;21.05;;;13.90;;
8564;SDS011;4320;51.498;6.556;2022-08-01T03:00:33;24.95;;;14.35;;
8564;SDS011;4320;51.498;6.556;2022-08-01T03:03:00;21.40;;;13.55;;
8564;SDS011;4320;51.498;6.556;2022-08-01T03:05:28;20.50;;;13.88;;
8564;SDS011;4320;51.498;6.556;2022-08-01T03:07:55;20.75;;;13.73;;
8564;SDS011;4320;51.498;6.556;2022-08-01T03:10:22;21.95;;;14.35;;
8564;SDS011;4320;51.498;6.556;2022-08-01T03:12:49;19.33;;;13.43;;
8564;SDS011;4320;51.498;6.556;2022-08-01T03:15:16;23.17;;;14.10;;
8564;SDS011;4320;51.498;6.556;2022-08-01T03:17:44;21.80;;;14.57;;
8564;SDS011;4320;51.498;6.556;2022-08-01T03:20:12;24.50;;;13.90;;
8564;SDS011;4320;51.498;6.556;2022-08-01T03:22:40;21.63;;;13.85;;
8564;SDS011;4320;51.498;6.556;2022-08-01T03:25:08;22.90;;;14.00;;
8564;SDS011;4320;51.498;6.556;2022-08-01T03:27:36;21.55;;;14.52;;
8564;SDS011;4320;51.498;6.556;2022-08-01T03:30:03;22.73;;;14.82;;
8564;SDS011;4320;51.498;6.556;2022-08-01T03:32:30;21.67;;;13.23;;
8564;SDS011;4320;51.498;6.556;2022-08-01T03:34:56;20.02;;;13.98;;
8564;SDS011;4320;51.498;6.556;2022-08-01T03:37:24;17.55;;;13.40;;
8564;SDS011;4320;51.498;6.556;2022-08-01T03:42:23;21.48;;;14.13;;
8564;SDS011;4320;51.498;6.556;2022-08-01T03:45:06;17.63;;;13.27;;
8564;SDS011;4320;51.498;6.556;2022-08-01T03:47:34;23.00;;;13.73;;
8564;SDS011;4320;51.498;6.556;2022-08-01T03:50:02;21.83;;;14.45;;
8564;SDS011;4320;51.498;6.556;2022-08-01T03:52:30;18.98;;;14.32;;
8564;SDS011;4320;51.498;6.556;2022-08-01T03:55:03;17.80;;;13.40;;
8564;SDS011;4320;51.498;6.556;2022-08-01T03:57:32;21.48;;;14.55;;
8564;SDS011;4320;51.498;6.556;2022-08-01T03:59:58;22.30;;;13.25;;
8564;SDS011;4320;51.498;6.556;2022-08-01T04:02:25;19.02;;;13.70;;
8564;SDS011;4320;51.498;6.556;2022-08-01T04:04:52;18.48;;;13.73;;
8564;SDS011;4320;51.498;6.556;2022-08-01T04:07:22;19.77;;;13.15;;
8564;SDS011;4320;51.498;6.556;2022-08-01T04:09:49;20.90;;;13.23;;
8564;SDS011;4320;51.498;6.556;2022-08-01T04:12:15;17.40;;;12.52;;
8564;SDS011;4320;51.498;6.556;2022-08-01T04:14:41;22.80;;;13.77;;
8564;SDS011;4320;51.498;6.556;2022-08-01T04:17:07;16.33;;;12.55;;
8564;SDS011;4320;51.498;6.556;2022-08-01T04:19:32;21.25;;;12.98;;
8564;SDS011;4320;51.498;6.556;2022-08-01T04:21:58;22.02;;;13.23;;
8564;SDS011;4320;51.498;6.556;2022-08-01T04:24:24;20.73;;;13.25;;
8564;SDS011;4320;51.498;6.556;2022-08-01T04:26:53;18.40;;;13.65;;
8564;SDS011;4320;51.498;6.556;2022-08-01T04:29:20;20.85;;;13.05;;
8564;SDS011;4320;51.498;6.556;2022-08-01T04:31:48;15.77;;;12.50;;
8564;SDS011;4320;51.498;6.556;2022-08-01T04:34:15;22.13;;;12.80;;
8564;SDS011;4320;51.498;6.556;2022-08-01T04:36:45;20.10;;;13.05;;
8564;SDS011;4320;51.498;6.556;2022-08-01T04:39:12;21.88;;;12.55;;
8564;SDS011;4320;51.498;6.556;2022-08-01T04:41:39;19.92;;;13.02;;
8564;SDS011;4320;51.498;6.556;2022-08-01T04:44:06;17.95;;;12.43;;
8564;SDS011;4320;51.498;6.556;2022-08-01T04:46:32;20.88;;;12.60;;
8564;SDS011;4320;51.498;6.556;2022-08-01T04:48:58;21.80;;;13.18;;
8564;SDS011;4320;51.498;6.556;2022-08-01T04:51:25;18.88;;;12.32;;
8564;SDS011;4320;51.498;6.556;2022-08-01T04:53:51;20.00;;;12.55;;
8564;SDS011;4320;51.498;6.556;2022-08-01T04:56:18;16.25;;;12.05;;
8564;SDS011;4320;51.498;6.556;2022-08-01T04:58:45;19.38;;;12.25;;
8564;SDS011;4320;51.498;6.556;2022-08-01T05:01:12;17.15;;;12.13;;
8564;SDS011;4320;51.498;6.556;2022-08-01T05:03:38;17.98;;;11.77;;
8564;SDS011;4320;51.498;6.556;2022-08-01T05:06:04;16.63;;;12.00;;
8564;SDS011;4320;51.498;6.556;2022-08-01T05:08:30;16.27;;;11.57;;
8564;SDS011;4320;51.498;6.556;2022-08-01T05:10:56;16.38;;;11.60;;
8564;SDS011;4320;51.498;6.556;2022-08-01T05:13:21;16.60;;;11.15;;
8564;SDS011;4320;51.498;6.556;2022-08-01T05:15:47;21.35;;;11.15;;
8564;SDS011;4320;51.498;6.556;2022-08-01T05:18:13;20.17;;;11.88;;
8564;SDS011;4320;51.498;6.556;2022-08-01T05:20:39;18.35;;;12.02;;
8564;SDS011;4320;51.498;6.556;2022-08-01T05:23:06;19.10;;;12.45;;
8564;SDS011;4320;51.498;6.556;2022-08-01T05:25:32;17.95;;;12.23;;
8564;SDS011;4320;51.498;6.556;2022-08-01T05:27:58;17.05;;;11.48;;
8564;SDS011;4320;51.498;6.556;2022-08-01T05:30:24;17.75;;;12.25;;
8564;SDS011;4320;51.498;6.556;2022-08-01T05:32:50;18.15;;;12.07;;
8564;SDS011;4320;51.498;6.556;2022-08-01T05:35:15;18.95;;;12.10;;
8564;SDS011;4320;51.498;6.556;2022-08-01T05:37:41;17.00;;;12.25;;
8564;SDS011;4320;51.498;6.556;2022-08-01T05:40:07;16.52;;;11.20;;
8564;SDS011;4320;51.498;6.556;2022-08-01T05:42:33;17.33;;;11.18;;
8564;SDS011;4320;51.498;6.556;2022-08-01T05:44:59;18.50;;;11.27;;
8564;SDS011;4320;51.498;6.556;2022-08-01T05:47:24;16.63;;;11.93;;
8564;SDS011;4320;51.498;6.556;2022-08-01T05:49:50;16.00;;;10.55;;
8564;SDS011;4320;51.498;6.556;2022-08-01T05:52:15;16.73;;;10.85;;
8564;SDS011;4320;51.498;6.556;2022-08-01T05:54:41;20.20;;;12.30;;
8564;SDS011;4320;51.498;6.556;2022-08-01T05:57:07;14.05;;;10.38;;
8564;SDS011;4320;51.498;6.556;2022-08-01T05:59:33;16.08;;;10.52;;
8564;SDS011;4320;51.498;6.556;2022-08-01T06:01:58;13.57;;;9.68;;
8564;SDS011;4320;51.498;6.556;2022-08-01T06:04:24;14.23;;;10.13;;
8564;SDS011;4320;51.498;6.556;2022-08-01T06:06:50;12.85;;;9.35;;
8564;SDS011;4320;51.498;6.556;2022-08-01T06:09:15;13.70;;;8.07;;
8564;SDS011;4320;51.498;6.556;2022-08-01T06:11:41;10.77;;;8.02;;
8564;SDS011;4320;51.498;6.556;2022-08-01T06:14:06;11.13;;;8.40;;
8564;SDS011;4320;51.498;6.556;2022-08-01T06:16:32;9.55;;;7.30;;
8564;SDS011;4320;51.498;6.556;2022-08-01T06:18:58;11.52;;;6.78;;
8564;SDS011;4320;51.498;6.556;2022-08-01T06:21:23;10.07;;;7.30;;
8564;SDS011;4320;51.498;6.556;2022-08-01T06:23:49;10.13;;;7.15;;
8564;SDS011;4320;51.498;6.556;2022-08-01T06:26:18;7.20;;;5.90;;
8564;SDS011;4320;51.498;6.556;2022-08-01T06:28:44;8.38;;;6.35;;
8564;SDS011;4320;51.498;6.556;2022-08-01T06:31:10;10.02;;;6.60;;
8564;SDS011;4320;51.498;6.556;2022-08-01T06:33:37;9.13;;;6.45;;
8564;SDS011;4320;51.498;6.556;2022-08-01T06:36:03;8.70;;;6.60;;
8564;SDS011;4320;51.498;6.556;2022-08-01T06:38:29;8.70;;;6.57;;
8564;SDS011;4320;51.498;6.556;2022-08-01T06:40:54;7.97;;;5.93;;
8564;SDS011;4320;51.498;6.556;2022-08-01T06:43:20;7.65;;;5.97;;
8564;SDS011;4320;51.498;6.556;2022-08-01T06:45:46;9.38;;;7.10;;
8564;SDS011;4320;51.498;6.556;2022-08-01T06:48:12;7.47;;;6.43;;
8564;SDS011;4320;51.498;6.556;2022-08-01T06:50:38;8.50;;;6.43;;
8564;SDS011;4320;51.498;6.556;2022-08-01T06:53:03;8.50;;;6.25;;
8564;SDS011;4320;51.498;6.556;2022-08-01T06:55:29;9.63;;;6.97;;
8564;SDS011;4320;51.498;6.556;2022-08-01T06:57:55;9.65;;;6.63;;
8564;SDS011;4320;51.498;6.556;2022-08-01T07:00:22;7.47;;;6.25;;
8564;SDS011;4320;51.498;6.556;2022-08-01T07:02:52;10.65;;;6.15;;
8564;SDS011;4320;51.498;6.556;2022-08-01T07:05:19;7.32;;;5.55;;
8564;SDS011;4320;51.498;6.556;2022-08-01T07:07:45;9.45;;;6.50;;
8564;SDS011;4320;51.498;6.556;2022-08-01T07:10:11;8.98;;;6.65;;
8564;SDS011;4320;51.498;6.556;2022-08-01T07:12:37;8.50;;;6.20;;
8564;SDS011;4320;51.498;6.556;2022-08-01T07:15:06;8.38;;;6.65;;
8564;SDS011;4320;51.498;6.556;2022-08-01T07:17:36;8.68;;;6.38;;
8564;SDS011;4320;51.498;6.556;2022-08-01T07:20:03;9.50;;;6.80;;
8564;SDS011;4320;51.498;6.556;2022-08-01T07:22:30;8.27;;;6.18;;
8564;SDS011;4320;51.498;6.556;2022-08-01T07:24:56;8.48;;;5.90;;
8564;SDS011;4320;51.498;6.556;2022-08-01T07:27:22;8.30;;;6.10;;
8564;SDS011;4320;51.498;6.556;2022-08-01T07:29:47;7.60;;;5.47;;
8564;SDS011;4320;51.498;6.556;2022-08-01T07:32:13;7.60;;;5.07;;
8564;SDS011;4320;51.498;6.556;2022-08-01T07:34:39;6.50;;;4.68;;
8564;SDS011;4320;51.498;6.556;2022-08-01T07:37:04;6.85;;;4.78;;
8564;SDS011;4320;51.498;6.556;2022-08-01T07:39:30;5.32;;;4.35;;
8564;SDS011;4320;51.498;6.556;2022-08-01T07:41:55;4.53;;;3.28;;
8564;SDS011;4320;51.498;6.556;2022-08-01T07:44:22;4.00;;;2.80;;
8564;SDS011;4320;51.498;6.556;2022-08-01T07:46:48;6.57;;;2.58;;
8564;SDS011;4320;51.498;6.556;2022-08-01T07:49:14;3.20;;;2.60;;
8564;SDS011;4320;51.498;6.556;2022-08-01T07:51:39;2.60;;;2.40;;
8564;SDS011;4320;51.498;6.556;2022-08-01T07:54:05;2.97;;;2.40;;
8564;SDS011;4320;51.498;6.556;2022-08-01T07:56:32;3.60;;;2.42;;
8564;SDS011;4320;51.498;6.556;2022-08-01T07:58:57;3.22;;;2.42;;
8564;SDS011;4320;51.498;6.556;2022-08-01T08:01:23;3.10;;;2.80;;
8564;SDS011;4320;51.498;6.556;2022-08-01T08:03:49;4.13;;;3.50;;
8564;SDS011;4320;51.498;6.556;2022-08-01T08:06:14;3.72;;;2.97;;
8564;SDS011;4320;51.498;6.556;2022-08-01T08:08:40;4.60;;;3.17;;
8564;SDS011;4320;51.498;6.556;2022-08-01T08:11:05;3.05;;;2.65;;
8564;SDS011;4320;51.498;6.556;2022-08-01T08:13:31;2.97;;;2.67;;
8564;SDS011;4320;51.498;6.556;2022-08-01T08:15:57;3.53;;;2.72;;
8564;SDS011;4320;51.498;6.556;2022-08-01T08:18:24;4.65;;;2.97;;
8564;SDS011;4320;51.498;6.556;2022-08-01T08:20:50;3.20;;;2.83;;
8564;SDS011;4320;51.498;6.556;2022-08-01T08:23:16;3.97;;;2.50;;
8564;SDS011;4320;51.498;6.556;2022-08-01T08:26:00;3.72;;;2.63;;
8564;SDS011;4320;51.498;6.556;2022-08-01T08:28:25;3.65;;;2.78;;
8564;SDS011;4320;51.498;6.556;2022-08-01T08:30:51;4.75;;;3.10;;
8564;SDS011;4320;51.498;6.556;2022-08-01T08:33:19;3.53;;;2.47;;
8564;SDS011;4320;51.498;6.556;2022-08-01T08:35:45;2.78;;;2.47;;
8564;SDS011;4320;51.498;6.556;2022-08-01T08:38:10;2.83;;;2.13;;
8564;SDS011;4320;51.498;6.556;2022-08-01T08:40:36;2.80;;;2.60;;
8564;SDS011;4320;51.498;6.556;2022-08-01T08:43:03;2.53;;;2.10;;
8564;SDS011;4320;51.498;6.556;2022-08-01T08:45:31;3.53;;;2.40;;
8564;SDS011;4320;51.498;6.556;2022-08-01T08:47:57;2.60;;;2.40;;
8564;SDS011;4320;51.498;6.556;2022-08-01T08:50:23;3.17;;;2.30;;
8564;SDS011;4320;51.498;6.556;2022-08-01T08:52:50;2.75;;;2.53;;
8564;SDS011;4320;51.498;6.556;2022-08-01T08:55:19;3.28;;;2.35;;
8564;SDS011;4320;51.498;6.556;2022-08-01T08:57:45;2.75;;;2.55;;
8564;SDS011;4320;51.498;6.556;2022-08-01T09:00:13;3.25;;;2.95;;
8564;SDS011;4320;51.498;6.556;2022-08-01T09:02:42;2.50;;;2.30;;
8564;SDS011;4320;51.498;6.556;2022-08-01T09:05:10;2.75;;;2.30;;
8564;SDS011;4320;51.498;6.556;2022-08-01T09:07:36;2.70;;;2.50;;
8564;SDS011;4320;51.498;6.556;2022-08-01T09:10:03;3.10;;;2.47;;
8564;SDS011;4320;51.498;6.556;2022-08-01T09:12:29;3.60;;;2.35;;
8564;SDS011;4320;51.498;6.556;2022-08-01T09:14:55;2.38;;;2.17;;
8564;SDS011;4320;51.498;6.556;2022-08-01T09:17:21;2.60;;;2.15;;
8564;SDS011;4320;51.498;6.556;2022-08-01T09:19:49;2.22;;;2.03;;
8564;SDS011;4320;51.498;6.556;2022-08-01T09:22:23;1.60;;;1.50;;
8564;SDS011;4320;51.498;6.556;2022-08-01T09:25:00;5.20;;;1.83;;
8564;SDS011;4320;51.498;6.556;2022-08-01T09:27:28;1.95;;;1.75;;
8564;SDS011;4320;51.498;6.556;2022-08-01T09:29:55;1.30;;;1.20;;
8564;SDS011;4320;51.498;6.556;2022-08-01T09:32:33;1.42;;;1.20;;
8564;SDS011;4320;51.498;6.556;2022-08-01T09:35:21;1.40;;;1.30;;
8564;SDS011;4320;51.498;6.556;2022-08-01T09:37:47;1.30;;;1.20;;
8564;SDS011;4320;51.498;6.556;2022-08-01T09:40:13;2.67;;;1.30;;
8564;SDS011;4320;51.498;6.556;2022-08-01T09:42:39;0.93;;;0.93;;
8564;SDS011;4320;51.498;6.556;2022-08-01T09:45:05;0.80;;;0.80;;
8564;SDS011;4320;51.498;6.556;2022-08-01T09:47:38;1.10;;;1.10;;
8564;SDS011;4320;51.498;6.556;2022-08-01T09:50:04;1.25;;;1.05;;
8564;SDS011;4320;51.498;6.556;2022-08-01T09:52:30;0.98;;;0.98;;
8564;SDS011;4320;51.498;6.556;2022-08-01T09:54:57;1.02;;;0.90;;
8564;SDS011;4320;51.498;6.556;2022-08-01T09:57:25;2.83;;;1.17;;
8564;SDS011;4320;51.498;6.556;2022-08-01T09:59:52;1.20;;;1.10;;
8564;SDS011;4320;51.498;6.556;2022-08-01T10:02:52;0.93;;;0.90;;
8564;SDS011;4320;51.498;6.556;2022-08-01T10:05:11;1.08;;;1.00;;
8564;SDS011;4320;51.498;6.556;2022-08-01T10:07:54;1.88;;;1.20;;
8564;SDS011;4320;51.498;6.556;2022-08-01T10:10:24;1.60;;;1.50;;
8564;SDS011;4320;51.498;6.556;2022-08-01T10:12:51;1.42;;;1.33;;
8564;SDS011;4320;51.498;6.556;2022-08-01T10:15:18;1.40;;;1.30;;
8564;SDS011;4320;51.498;6.556;2022-08-01T10:17:52;1.30;;;1.20;;
8564;SDS011;4320;51.498;6.556;2022-08-01T10:20:19;1.85;;;1.50;;
8564;SDS011;4320;51.498;6.556;2022-08-01T10:22:47;1.35;;;1.25;;
8564;SDS011;4320;51.498;6.556;2022-08-01T10:25:14;1.77;;;1.48;;
8564;SDS011;4320;51.498;6.556;2022-08-01T10:27:43;2.17;;;1.20;;
8564;SDS011;4320;51.498;6.556;2022-08-01T10:30:11;1.67;;;1.20;;
8564;SDS011;4320;51.498;6.556;2022-08-01T10:32:37;3.25;;;1.25;;
8564;SDS011;4320;51.498;6.556;2022-08-01T10:35:04;1.35;;;1.25;;
8564;SDS011;4320;51.498;6.556;2022-08-01T10:37:31;1.48;;;1.30;;
8564;SDS011;4320;51.498;6.556;2022-08-01T10:40:00;2.15;;;1.30;;
8564;SDS011;4320;51.498;6.556;2022-08-01T10:42:26;1.30;;;1.20;;
8564;SDS011;4320;51.498;6.556;2022-08-01T10:44:53;1.83;;;1.13;;
8564;SDS011;4320;51.498;6.556;2022-08-01T10:47:22;1.08;;;1.00;;
8564;SDS011;4320;51.498;6.556;2022-08-01T10:50:03;0.70;;;0.70;;
8564;SDS011;4320;51.498;6.556;2022-08-01T10:52:36;0.90;;;0.90;;
8564;SDS011;4320;51.498;6.556;2022-08-01T10:55:06;0.98;;;0.90;;
8564;SDS011;4320;51.498;6.556;2022-08-01T10:57:44;1.00;;;1.00;;
8564;SDS011;4320;51.498;6.556;2022-08-01T11:00:18;0.95;;;0.95;;
8564;SDS011;4320;51.498;6.556;2022-08-01T11:03:00;0.90;;;0.90;;
8564;SDS011;4320;51.498;6.556;2022-08-01T11:05:30;1.60;;;1.10;;
8564;SDS011;4320;51.498;6.556;2022-08-01T11:08:01;1.20;;;1.10;;
8564;SDS011;4320;51.498;6.556;2022-08-01T11:10:47;1.05;;;1.05;;
8564;SDS011;4320;51.498;6.556;2022-08-01T11:14:00;2.30;;;1.20;;
8564;SDS011;4320;51.498;6.556;2022-08-01T11:16:43;1.00;;;1.00;;
8564;SDS011;4320;51.498;6.556;2022-08-01T11:19:09;0.90;;;0.90;;
8564;SDS011;4320;51.498;6.556;2022-08-01T11:25:07;1.20;;;1.10;;
8564;SDS011;4320;51.498;6.556;2022-08-01T11:27:21;1.30;;;1.20;;
8564;SDS011;4320;51.498;6.556;2022-08-01T11:32:47;1.30;;;1.10;;
8564;SDS011;4320;51.498;6.556;2022-08-01T11:35:13;2.80;;;1.20;;
8564;SDS011;4320;51.498;6.556;2022-08-01T11:37:39;1.15;;;1.10;;
8564;SDS011;4320;51.498;6.556;2022-08-01T11:40:27;1.40;;;1.10;;
8564;SDS011;4320;51.498;6.556;2022-08-01T11:45:53;1.30;;;1.20;;
8564;SDS011;4320;51.498;6.556;2022-08-01T11:48:24;1.25;;;1.15;;
8564;SDS011;4320;51.498;6.556;2022-08-01T11:50:51;1.08;;;1.08;;
8564;SDS011;4320;51.498;6.556;2022-08-01T11:53:18;1.48;;;1.23;;
8564;SDS011;4320;51.498;6.556;2022-08-01T11:55:48;1.27;;;1.20;;
8564;SDS011;4320;51.498;6.556;2022-08-01T11:58:16;2.65;;;1.40;;
8564;SDS011;4320;51.498;6.556;2022-08-01T12:00:50;1.20;;;1.10;;
8564;SDS011;4320;51.498;6.556;2022-08-01T12:03:16;6.85;;;1.80;;
8564;SDS011;4320;51.498;6.556;2022-08-01T12:05:48;1.75;;;1.48;;
8564;SDS011;4320;51.498;6.556;2022-08-01T12:08:13;2.90;;;1.27;;
8564;SDS011;4320;51.498;6.556;2022-08-01T12:10:53;1.45;;;1.35;;
8564;SDS011;4320;51.498;6.556;2022-08-01T12:13:19;6.07;;;1.67;;
8564;SDS011;4320;51.498;6.556;2022-08-01T12:15:45;3.65;;;2.05;;
8564;SDS011;4320;51.498;6.556;2022-08-01T12:18:11;1.50;;;1.40;;
8564;SDS011;4320;51.498;6.556;2022-08-01T12:20:37;2.97;;;1.63;;
8564;SDS011;4320;51.498;6.556;2022-08-01T12:23:06;6.22;;;1.60;;
8564;SDS011;4320;51.498;6.556;2022-08-01T12:25:37;3.30;;;1.58;;
8564;SDS011;4320;51.498;6.556;2022-08-01T12:28:08;3.10;;;1.25;;
8564;SDS011;4320;51.498;6.556;2022-08-01T12:30:36;1.60;;;1.20;;
8564;SDS011;4320;51.498;6.556;2022-08-01T12:33:06;1.95;;;1.30;;
8564;SDS011;4320;51.498;6.556;2022-08-01T12:35:34;1.23;;;1.17;;
8564;SDS011;4320;51.498;6.556;2022-08-01T12:38:05;2.88;;;1.73;;
8564;SDS011;4320;51.498;6.556;2022-08-01T12:40:40;4.95;;;1.85;;
8564;SDS011;4320;51.498;6.556;2022-08-01T12:43:08;3.83;;;1.80;;
8564;SDS011;4320;51.498;6.556;2022-08-01T12:45:44;1.50;;;1.40;;
8564;SDS011;4320;51.498;6.556;2022-08-01T12:48:12;2.08;;;1.60;;
8564;SDS011;4320;51.498;6.556;2022-08-01T12:50:40;3.42;;;1.60;;
8564;SDS011;4320;51.498;6.556;2022-08-01T12:53:08;1.40;;;1.20;;
8564;SDS011;4320;51.498;6.556;2022-08-01T12:55:43;2.60;;;1.50;;
8564;SDS011;4320;51.498;6.556;2022-08-01T12:58:11;3.60;;;1.42;;
8564;SDS011;4320;51.498;6.556;2022-08-01T13:00:39;1.58;;;1.35;;
8564;SDS011;4320;51.498;6.556;2022-08-01T13:03:15;2.42;;;1.20;;
8564;SDS011;4320;51.498;6.556;2022-08-01T13:08:31;1.52;;;1.40;;
8564;SDS011;4320;51.498;6.556;2022-08-01T13:11:08;3.50;;;1.50;;
8564;SDS011;4320;51.498;6.556;2022-08-01T13:13:48;1.30;;;1.20;;
8564;SDS011;4320;51.498;6.556;2022-08-01T13:16:18;3.25;;;1.40;;
8564;SDS011;4320;51.498;6.556;2022-08-01T13:18:50;5.90;;;2.10;;
8564;SDS011;4320;51.498;6.556;2022-08-01T13:21:17;5.20;;;2.03;;
8564;SDS011;4320;51.498;6.556;2022-08-01T13:24:01;4.72;;;1.80;;
8564;SDS011;4320;51.498;6.556;2022-08-01T13:26:39;2.95;;;1.77;;
8564;SDS011;4320;51.498;6.556;2022-08-01T13:29:13;3.17;;;1.55;;
8564;SDS011;4320;51.498;6.556;2022-08-01T13:31:40;2.50;;;1.80;;
8564;SDS011;4320;51.498;6.556;2022-08-01T13:34:06;3.30;;;1.52;;
8564;SDS011;4320;51.498;6.556;2022-08-01T13:36:33;4.43;;;1.50;;
8564;SDS011;4320;51.498;6.556;2022-08-01T13:38:59;1.75;;;1.65;;
8564;SDS011;4320;51.498;6.556;2022-08-01T13:41:44;1.35;;;1.25;;
8564;SDS011;4320;51.498;6.556;2022-08-01T13:44:11;2.63;;;1.50;;
8564;SDS011;4320;51.498;6.556;2022-08-01T13:46:37;7.10;;;1.80;;
8564;SDS011;4320;51.498;6.556;2022-08-01T13:49:05;1.70;;;1.30;;
8564;SDS011;4320;51.498;6.556;2022-08-01T13:51:31;1.80;;;1.40;;
8564;SDS011;4320;51.498;6.556;2022-08-01T13:53:58;1.30;;;1.20;;
8564;SDS011;4320;51.498;6.556;2022-08-01T13:56:24;1.25;;;1.13;;
8564;SDS011;4320;51.498;6.556;2022-08-01T13:58:52;1.30;;;1.15;;
8564;SDS011;4320;51.498;6.556;2022-08-01T14:01:18;2.08;;;1.30;;
8564;SDS011;4320;51.498;6.556;2022-08-01T14:03:45;1.45;;;1.08;;
8564;SDS011;4320;51.498;6.556;2022-08-01T14:06:11;1.60;;;1.08;;
8564;SDS011;4320;51.498;6.556;2022-08-01T14:08:37;3.22;;;1.10;;
8564;SDS011;4320;51.498;6.556;2022-08-01T14:11:03;1.23;;;1.13;;
8564;SDS011;4320;51.498;6.556;2022-08-01T14:13:28;1.77;;;1.05;;
8564;SDS011;4320;51.498;6.556;2022-08-01T14:15:54;1.30;;;1.20;;
8564;SDS011;4320;51.498;6.556;2022-08-01T14:18:20;2.50;;;1.15;;
8564;SDS011;4320;51.498;6.556;2022-08-01T14:20:46;2.40;;;1.10;;
8564;SDS011;4320;51.498;6.556;2022-08-01T14:23:12;1.65;;;1.20;;
8564;SDS011;4320;51.498;6.556;2022-08-01T14:25:38;2.33;;;1.50;;
8564;SDS011;4320;51.498;6.556;2022-08-01T14:28:05;1.40;;;1.10;;
8564;SDS011;4320;51.498;6.556;2022-08-01T14:30:31;1.23;;;1.10;;
8564;SDS011;4320;51.498;6.556;2022-08-01T14:32:57;2.92;;;1.25;;
8564;SDS011;4320;51.498;6.556;2022-08-01T14:35:23;1.33;;;1.15;;
8564;SDS011;4320;51.498;6.556;2022-08-01T14:37:49;4.22;;;1.50;;
8564;SDS011;4320;51.498;6.556;2022-08-01T14:40:14;1.58;;;1.10;;
8564;SDS011;4320;51.498;6.556;2022-08-01T14:42:40;2.53;;;1.38;;
8564;SDS011;4320;51.498;6.556;2022-08-01T14:45:06;1.75;;;1.27;;
8564;SDS011;4320;51.498;6.556;2022-08-01T14:47:38;1.73;;;1.20;;
8564;SDS011;4320;51.498;6.556;2022-08-01T14:50:06;1.98;;;1.58;;
8564;SDS011;4320;51.498;6.556;2022-08-01T14:52:35;2.67;;;1.60;;
8564;SDS011;4320;51.498;6.556;2022-08-01T14:55:01;2.00;;;1.30;;
8564;SDS011;4320;51.498;6.556;2022-08-01T14:57:28;1.98;;;1.10;;
8564;SDS011;4320;51.498;6.556;2022-08-01T14:59:54;2.25;;;1.25;;
8564;SDS011;4320;51.498;6.556;2022-08-01T15:02:19;3.05;;;1.33;;
8564;SDS011;4320;51.498;6.556;2022-08-01T15:04:46;3.88;;;1.25;;
8564;SDS011;4320;51.498;6.556;2022-08-01T15:07:12;3.17;;;1.50;;
8564;SDS011;4320;51.498;6.556;2022-08-01T15:09:38;2.95;;;1.73;;
8564;SDS011;4320;51.498;6.556;2022-08-01T15:12:04;1.52;;;1.40;;
8564;SDS011;4320;51.498;6.556;2022-08-01T15:14:31;2.00;;;1.50;;
8564;SDS011;4320;51.498;6.556;2022-08-01T15:17:25;2.30;;;1.42;;
8564;SDS011;4320;51.498;6.556;2022-08-01T15:19:57;2.13;;;1.50;;
8564;SDS011;4320;51.498;6.556;2022-08-01T15:22:32;1.40;;;1.30;;
8564;SDS011;4320;51.498;6.556;2022-08-01T15:24:59;3.42;;;1.75;;
8564;SDS011;4320;51.498;6.556;2022-08-01T15:27:26;2.83;;;1.42;;
8564;SDS011;4320;51.498;6.556;2022-08-01T15:29:53;3.65;;;1.90;;
8564;SDS011;4320;51.498;6.556;2022-08-01T15:32:20;1.80;;;1.55;;
8564;SDS011;4320;51.498;6.556;2022-08-01T15:34:46;3.10;;;1.88;;
8564;SDS011;4320;51.498;6.556;2022-08-01T15:37:12;3.63;;;1.90;;
8564;SDS011;4320;51.498;6.556;2022-08-01T15:39:38;4.28;;;1.70;;
8564;SDS011;4320;51.498;6.556;2022-08-01T15:42:11;3.95;;;2.40;;